Time;durP1;ratioP1;P1;durP2;ratioP2;P2;SDS_P1;SDS_P2;PMS_P1;PMS_P2;Temp;Humidity;BMP_temperature;BMP_pressure;BME280_temperature;BME280_humidity;BME280_pressure;Samples;Min_cycle;Max_cycle;Signal;HPM_P1;HPM_P2
2021/09/01 04:00:37;;;;;;;33.17;20.33;;;14.70;99.90;;;;;;6108939;23;20652;31
2021/09/01 04:03:05;;;;;;;32.07;18.60;;;14.70;99.90;;;;;;6095624;23;20429;-69
2021/09/01 04:05:32;;;;;;;38.13;20.10;;;14.70;99.90;;;;;;6096541;23;20874;-69
2021/09/01 04:07:58;;;;;;;33.27;19.73;;;14.70;99.90;;;;;;6097037;23;20409;-69
2021/09/01 04:10:25;;;;;;;41.43;20.70;;;14.70;99.90;;;;;;6096494;23;20428;-69
2021/09/01 04:12:53;;;;;;;32.80;19.87;;;14.70;99.90;;;;;;6096513;23;20504;-69
2021/09/01 04:15:19;;;;;;;34.93;20.50;;;14.70;99.90;;;;;;6096134;23;20424;-69
2021/09/01 04:17:46;;;;;;;33.97;20.90;;;14.70;99.90;;;;;;6096392;23;20424;-69
2021/09/01 04:20:14;;;;;;;32.27;19.13;;;14.70;99.90;;;;;;6096928;23;20491;-70
2021/09/01 04:22:41;;;;;;;33.37;19.67;;;14.70;99.90;;;;;;6096930;23;20494;-69
2021/09/01 04:25:08;;;;;;;33.60;20.70;;;14.70;99.90;;;;;;6097051;23;20424;-69
2021/09/01 04:27:35;;;;;;;31.23;18.73;;;14.70;99.90;;;;;;6096907;23;20424;-69
2021/09/01 04:30:02;;;;;;;28.30;18.33;;;14.70;99.90;;;;;;6096440;23;20428;-67
2021/09/01 04:32:29;;;;;;;31.17;18.93;;;14.70;99.90;;;;;;6096203;23;20464;-67
2021/09/01 04:34:55;;;;;;;28.97;17.80;;;14.70;99.90;;;;;;6096429;23;20471;-68
2021/09/01 04:37:23;;;;;;;31.93;20.07;;;14.70;99.90;;;;;;6096772;23;20433;-68
2021/09/01 04:39:50;;;;;;;33.80;19.07;;;14.70;99.90;;;;;;6096114;23;20457;-68
2021/09/01 04:42:16;;;;;;;30.63;19.10;;;14.70;99.90;;;;;;6095896;23;20440;-67
2021/09/01 04:44:43;;;;;;;30.97;20.93;;;14.70;99.90;;;;;;6096086;23;20413;-68
2021/09/01 04:47:10;;;;;;;35.67;20.07;;;14.70;99.90;;;;;;6096898;23;20431;-67
2021/09/01 04:49:36;;;;;;;31.60;21.00;;;14.70;99.90;;;;;;6096580;23;20432;-68
2021/09/01 04:52:04;;;;;;;38.03;21.37;;;14.70;99.90;;;;;;6096464;23;20452;-68
2021/09/01 04:54:32;;;;;;;36.80;21.77;;;14.70;99.90;;;;;;6096199;23;20458;-68
2021/09/01 04:56:59;;;;;;;32.13;19.30;;;14.70;99.90;;;;;;6096637;23;20516;-67
2021/09/01 04:59:25;;;;;;;30.13;20.40;;;14.70;99.90;;;;;;6096707;23;20432;-67
2021/09/01 05:01:52;;;;;;;35.77;19.70;;;14.70;99.90;;;;;;6123557;23;20462;-67
2021/09/01 05:04:18;;;;;;;36.47;21.30;;;14.70;99.90;;;;;;6124992;23;20499;-67
2021/09/01 05:06:45;;;;;;;36.10;20.70;;;14.80;99.90;;;;;;6125902;23;20450;-67
2021/09/01 05:09:12;;;;;;;35.60;19.60;;;14.80;99.90;;;;;;6125438;23;20423;-68
2021/09/01 05:11:40;;;;;;;36.07;20.90;;;14.80;99.90;;;;;;6125566;23;20481;-67
2021/09/01 05:14:06;;;;;;;36.30;21.13;;;14.80;99.90;;;;;;6125431;23;20436;-67
2021/09/01 05:16:33;;;;;;;30.17;22.17;;;14.90;99.90;;;;;;6124782;23;20424;-67
2021/09/01 05:19:00;;;;;;;36.23;21.80;;;14.90;99.90;;;;;;6124915;23;20440;-67
2021/09/01 05:21:28;;;;;;;32.07;19.67;;;14.90;99.90;;;;;;6125021;23;20435;-67
2021/09/01 05:23:56;;;;;;;35.40;20.97;;;14.90;99.90;;;;;;6125130;23;20490;-67
2021/09/01 05:26:28;;;;;;;35.63;18.97;;;15.00;99.90;;;;;;6125163;23;20463;-67
2021/09/01 05:28:56;;;;;;;25.33;18.50;;;15.00;99.90;;;;;;6135538;23;20471;-67
2021/09/01 05:31:25;;;;;;;28.90;18.40;;;15.00;99.90;;;;;;6124840;23;20455;-67
2021/09/01 05:33:52;;;;;;;33.60;18.53;;;15.00;99.90;;;;;;6124634;23;20897;-67
2021/09/01 05:36:19;;;;;;;27.37;18.03;;;15.10;99.90;;;;;;6135153;23;20447;-68
2021/09/01 05:38:47;;;;;;;27.00;18.73;;;15.10;99.90;;;;;;6125681;23;20490;-69
2021/09/01 05:41:13;;;;;;;29.13;16.20;;;15.10;99.90;;;;;;6125164;23;20926;-70
2021/09/01 05:43:40;;;;;;;29.60;17.63;;;15.10;99.90;;;;;;6125364;23;20427;-70
2021/09/01 05:46:08;;;;;;;22.87;16.10;;;15.20;99.90;;;;;;6124686;23;20431;-70
2021/09/01 05:48:37;;;;;;;25.23;17.17;;;15.20;99.90;;;;;;6125220;23;20489;-70
2021/09/01 05:51:06;;;;;;;29.23;17.30;;;15.20;99.90;;;;;;6125204;23;20564;-70
2021/09/01 05:53:33;;;;;;;27.20;16.80;;;15.20;99.90;;;;;;6125619;23;20487;-70
2021/09/01 05:56:07;;;;;;;22.30;15.63;;;15.10;99.90;;;;;;6125930;23;20432;-70
2021/09/01 05:58:37;;;;;;;22.70;15.50;;;15.10;99.90;;;;;;6125673;23;20499;-69
2021/09/01 06:01:08;;;;;;;25.00;15.40;;;15.10;99.90;;;;;;6125798;23;20753;-70
2021/09/01 06:03:42;;;;;;;25.73;15.20;;;15.10;99.90;;;;;;6127136;23;20438;-70
2021/09/01 06:06:13;;;;;;;25.50;15.07;;;15.20;99.90;;;;;;6125965;23;20439;-70
2021/09/01 06:08:40;;;;;;;25.77;15.87;;;15.20;99.90;;;;;;6125626;23;20779;-70
2021/09/01 06:11:08;;;;;;;23.10;15.67;;;15.20;99.90;;;;;;6125450;23;20499;-70
2021/09/01 06:13:35;;;;;;;23.53;14.50;;;15.30;99.90;;;;;;6124809;23;20419;-69
2021/09/01 06:16:01;;;;;;;18.10;13.00;;;15.40;99.90;;;;;;6125013;23;20428;-70
2021/09/01 06:18:29;;;;;;;20.43;12.60;;;15.40;99.90;;;;;;6125003;23;20471;-70
2021/09/01 06:20:56;;;;;;;20.00;12.60;;;15.50;99.90;;;;;;6125615;23;20448;-70
2021/09/01 06:23:23;;;;;;;23.20;13.90;;;15.50;99.90;;;;;;6124948;23;20428;-71
2021/09/01 06:25:50;;;;;;;23.73;16.33;;;15.50;99.90;;;;;;6125556;23;20430;-70
2021/09/01 06:28:17;;;;;;;21.60;15.87;;;15.50;99.90;;;;;;6124972;23;20936;-70
2021/09/01 06:30:44;;;;;;;17.00;14.27;;;15.50;99.90;;;;;;6124045;23;20448;-70
2021/09/01 06:33:10;;;;;;;22.40;14.33;;;15.50;99.90;;;;;;6124099;23;20504;-70
2021/09/01 06:35:38;;;;;;;17.60;13.00;;;15.60;99.90;;;;;;6125483;23;20431;-70
2021/09/01 06:38:06;;;;;;;18.23;13.80;;;15.60;99.90;;;;;;6125249;23;20435;-68
2021/09/01 06:40:33;;;;;;;23.00;14.77;;;15.60;99.90;;;;;;6125733;23;20773;-67
2021/09/01 06:42:59;;;;;;;18.70;14.27;;;15.60;99.90;;;;;;6125066;23;20961;-67
2021/09/01 06:45:26;;;;;;;15.87;12.30;;;15.60;99.90;;;;;;6124766;23;20446;-67
2021/09/01 06:47:53;;;;;;;19.97;14.90;;;15.70;99.90;;;;;;6124535;23;21217;-67
2021/09/01 06:50:22;;;;;;;17.30;13.87;;;15.70;99.90;;;;;;6125378;23;20478;-67
2021/09/01 06:52:51;;;;;;;21.83;13.57;;;15.70;99.90;;;;;;6125265;23;20455;-68
2021/09/01 06:55:17;;;;;;;16.53;12.70;;;15.80;99.90;;;;;;6124905;23;20431;-68
2021/09/01 06:57:44;;;;;;;19.37;14.33;;;15.90;99.90;;;;;;6124904;23;20463;-68
2021/09/01 07:00:13;;;;;;;18.10;13.77;;;16.00;99.90;;;;;;6124309;23;20910;-68
2021/09/01 07:02:40;;;;;;;18.70;15.20;;;16.00;99.90;;;;;;6124304;23;20432;-68
2021/09/01 07:05:11;;;;;;;20.33;15.20;;;16.10;99.90;;;;;;6125362;23;20556;-68
2021/09/01 07:07:37;;;;;;;18.17;12.93;;;16.20;99.90;;;;;;6125402;23;20435;-68
2021/09/01 07:10:06;;;;;;;19.10;14.77;;;16.30;99.90;;;;;;6124749;23;20514;-68
2021/09/01 07:12:32;;;;;;;17.97;13.90;;;16.40;99.90;;;;;;6124978;23;20821;-68
2021/09/01 07:14:59;;;;;;;15.20;11.93;;;16.50;99.90;;;;;;6124427;23;20431;-68
2021/09/01 07:17:26;;;;;;;14.43;11.90;;;16.50;99.90;;;;;;6125173;23;20431;-68
2021/09/01 07:19:52;;;;;;;14.57;12.90;;;16.50;99.90;;;;;;6124402;23;20482;-68
2021/09/01 07:22:19;;;;;;;19.10;13.83;;;16.60;99.90;;;;;;6124923;23;20447;-68
2021/09/01 07:24:46;;;;;;;17.57;14.10;;;16.50;99.90;;;;;;6124928;23;20431;-68
2021/09/01 07:27:14;;;;;;;15.27;12.37;;;16.50;99.90;;;;;;6125080;23;20742;-67
2021/09/01 07:29:40;;;;;;;16.93;12.83;;;16.60;99.90;;;;;;6123687;23;20423;-69
2021/09/01 07:32:07;;;;;;;15.27;12.17;;;16.70;99.90;;;;;;6124208;23;20490;-68
2021/09/01 07:34:34;;;;;;;17.50;12.30;;;16.80;99.90;;;;;;6124446;23;20495;-68
2021/09/01 07:37:01;;;;;;;13.50;11.63;;;16.90;99.90;;;;;;6124825;23;20424;-68
2021/09/01 07:39:27;;;;;;;16.10;12.63;;;16.90;99.90;;;;;;6124891;23;20431;-68
2021/09/01 07:41:54;;;;;;;13.93;11.50;;;17.00;99.90;;;;;;6125601;23;20531;-68
2021/09/01 07:44:22;;;;;;;16.80;11.97;;;16.90;99.90;;;;;;6126392;23;20427;-68
2021/09/01 07:46:48;;;;;;;13.93;9.97;;;17.00;99.90;;;;;;6126323;23;20443;-68
2021/09/01 07:49:15;;;;;;;13.17;10.47;;;17.10;99.90;;;;;;6126008;23;20432;-68
2021/09/01 07:51:42;;;;;;;16.63;11.00;;;17.10;99.90;;;;;;6126391;23;20455;-67
2021/09/01 07:54:08;;;;;;;12.43;9.83;;;17.10;99.90;;;;;;6126531;23;20446;-68
2021/09/01 07:56:35;;;;;;;15.37;10.40;;;17.10;99.90;;;;;;6126072;23;20442;-67
2021/09/01 07:59:02;;;;;;;10.00;8.93;;;17.20;99.90;;;;;;6126472;23;20434;-67
2021/09/01 08:01:30;;;;;;;13.90;10.20;;;17.30;99.90;;;;;;6125830;23;20451;-68
2021/09/01 08:03:56;;;;;;;11.87;9.50;;;17.30;99.90;;;;;;6126060;23;20486;-68
2021/09/01 08:06:23;;;;;;;15.23;9.60;;;17.40;99.90;;;;;;6126517;23;20428;-68
2021/09/01 08:08:51;;;;;;;12.70;8.27;;;17.40;99.90;;;;;;6126175;23;20917;-67
2021/09/01 08:11:17;;;;;;;9.37;8.50;;;17.50;99.90;;;;;;6126640;23;20704;-67
2021/09/01 08:13:44;;;;;;;13.03;9.57;;;17.60;99.90;;;;;;6126348;23;20474;-67
2021/09/01 08:16:11;;;;;;;10.93;9.17;;;17.70;99.90;;;;;;6125903;23;20731;-68
2021/09/01 08:18:39;;;;;;;11.33;8.87;;;17.80;99.90;;;;;;6125367;23;20430;-68
2021/09/01 08:21:05;;;;;;;10.77;7.67;;;17.80;99.90;;;;;;6126389;23;20444;-70
2021/09/01 08:23:32;;;;;;;11.57;7.90;;;17.80;99.90;;;;;;6125531;23;20443;-69
2021/09/01 08:25:59;;;;;;;9.33;7.43;;;17.80;99.90;;;;;;6126424;23;20424;-69
2021/09/01 08:28:26;;;;;;;12.90;8.27;;;17.80;99.90;;;;;;6126229;23;20508;-68
2021/09/01 08:30:52;;;;;;;11.37;8.50;;;17.90;99.90;;;;;;6125773;23;20496;-68
2021/09/01 08:33:19;;;;;;;11.03;8.80;;;17.90;99.90;;;;;;6125362;23;20778;-68
2021/09/01 08:35:47;;;;;;;9.27;8.07;;;18.10;99.90;;;;;;6126605;23;20431;-68
2021/09/01 08:38:14;;;;;;;8.90;8.20;;;18.10;99.90;;;;;;6126152;23;20474;-68
2021/09/01 08:40:41;;;;;;;10.30;8.07;;;18.20;99.90;;;;;;6126361;23;20444;-67
2021/09/01 08:43:08;;;;;;;10.90;7.63;;;18.30;99.90;;;;;;6125821;23;20777;-67
2021/09/01 08:45:35;;;;;;;8.10;7.30;;;18.30;99.90;;;;;;6125261;23;20427;-68
2021/09/01 08:48:02;;;;;;;10.93;7.23;;;18.40;99.90;;;;;;6125323;23;20707;-68
2021/09/01 08:50:29;;;;;;;7.43;6.70;;;18.40;99.90;;;;;;6126265;23;20443;-67
2021/09/01 08:52:58;;;;;;;13.33;7.30;;;18.50;99.90;;;;;;6125115;23;20747;-67
2021/09/01 08:55:24;;;;;;;11.37;7.60;;;18.60;99.90;;;;;;6125759;23;20424;-67
2021/09/01 08:57:51;;;;;;;11.20;7.97;;;18.70;99.90;;;;;;6125861;23;20459;-68
2021/09/01 09:00:18;;;;;;;10.90;8.30;;;18.80;99.90;;;;;;6125357;23;20499;-68
2021/09/01 09:02:56;;;;;;;11.87;8.13;;;18.80;99.90;;;;;;6124793;23;20599;-68
2021/09/01 09:05:31;;;;;;;9.73;7.10;;;18.80;99.90;;;;;;6125936;23;20423;-67
2021/09/01 09:07:59;;;;;;;7.83;6.73;;;18.80;99.90;;;;;;6125767;23;20415;-67
2021/09/01 09:10:31;;;;;;;9.47;7.53;;;18.80;99.90;;;;;;6125838;23;20457;-68
2021/09/01 09:13:00;;;;;;;8.20;7.40;;;18.90;99.90;;;;;;6125048;23;21004;-68
2021/09/01 09:15:27;;;;;;;7.87;7.07;;;19.00;99.90;;;;;;6125596;23;20434;-67
2021/09/01 09:17:54;;;;;;;12.97;7.40;;;19.00;99.90;;;;;;6125266;23;20486;-67
2021/09/01 09:20:28;;;;;;;9.50;7.60;;;19.00;99.90;;;;;;6125781;23;20435;-67
2021/09/01 09:22:56;;;;;;;7.63;7.00;;;19.00;99.90;;;;;;6125481;23;20423;-67
2021/09/01 09:25:27;;;;;;;9.07;6.33;;;19.10;99.90;;;;;;6125559;23;20428;-68
2021/09/01 09:27:57;;;;;;;15.80;7.23;;;19.20;99.90;;;;;;6125449;23;20412;-68
2021/09/01 09:30:36;;;;;;;8.23;7.43;;;19.20;99.90;;;;;;6134662;23;20419;-67
2021/09/01 09:33:06;;;;;;;7.60;6.97;;;19.30;99.90;;;;;;6124427;23;20479;-68
2021/09/01 09:35:55;;;;;;;7.30;6.60;;;19.30;99.90;;;;;;6125694;23;20438;-67
2021/09/01 09:38:33;;;;;;;7.50;6.67;;;19.40;99.90;;;;;;6125629;23;20412;-68
2021/09/01 09:41:03;;;;;;;7.00;6.43;;;19.40;99.90;;;;;;6125835;23;20770;-67
2021/09/01 09:43:30;;;;;;;8.60;6.63;;;19.40;99.90;;;;;;6125318;23;20501;-67
2021/09/01 09:46:03;;;;;;;9.97;6.87;;;19.30;99.90;;;;;;6125141;23;20427;-67
2021/09/01 09:48:31;;;;;;;9.90;6.90;;;19.40;99.90;;;;;;6124836;23;20758;-67
2021/09/01 09:50:58;;;;;;;6.77;6.27;;;19.40;99.90;;;;;;6125707;23;20444;-67
2021/09/01 09:53:33;;;;;;;9.43;6.83;;;19.40;99.90;;;;;;6124822;23;20454;-69
2021/09/01 09:56:06;;;;;;;10.43;8.53;;;19.50;99.90;;;;;;6135214;23;20411;-69
2021/09/01 09:58:35;;;;;;;9.83;7.40;;;19.50;99.90;;;;;;6125149;23;20797;-67
2021/09/01 10:01:05;;;;;;;11.10;7.17;;;19.50;99.90;;;;;;6124639;23;21032;-68
2021/09/01 10:03:33;;;;;;;8.17;7.07;;;19.60;99.90;;;;;;6124767;23;20420;-67
2021/09/01 10:06:02;;;;;;;8.80;6.40;;;19.60;99.90;;;;;;6125590;23;20463;-68
2021/09/01 10:08:29;;;;;;;8.90;8.00;;;19.70;99.90;;;;;;6125364;23;20435;-67
2021/09/01 10:10:58;;;;;;;9.50;7.00;;;19.80;99.90;;;;;;6125033;23;20514;-68
2021/09/01 10:13:27;;;;;;;7.47;6.73;;;19.90;99.90;;;;;;6124656;23;21027;-68
2021/09/01 10:15:59;;;;;;;7.00;6.40;;;19.90;99.90;;;;;;6124711;23;20432;-68
2021/09/01 10:18:27;;;;;;;7.30;6.60;;;19.90;99.90;;;;;;6124210;23;20742;-67
2021/09/01 10:20:55;;;;;;;7.43;6.83;;;19.90;99.90;;;;;;6134612;23;20443;-67
2021/09/01 10:23:37;;;;;;;9.03;7.23;;;19.90;99.90;;;;;;6124853;23;20486;-67
2021/09/01 10:26:20;;;;;;;8.07;7.37;;;19.90;99.90;;;;;;6124853;23;20443;-68
2021/09/01 10:28:48;;;;;;;10.00;8.30;;;20.00;99.90;;;;;;6125024;23;20755;-67
2021/09/01 10:31:33;;;;;;;8.90;6.63;;;20.00;99.90;;;;;;6123902;23;20447;-67
2021/09/01 10:34:02;;;;;;;9.30;6.90;;;20.10;99.90;;;;;;6124427;23;20431;-67
2021/09/01 10:36:52;;;;;;;6.67;6.23;;;20.10;99.90;;;;;;6124758;23;20461;-67
2021/09/01 10:39:37;;;;;;;7.47;6.80;;;20.20;99.90;;;;;;6124500;23;20420;-67
2021/09/01 10:42:33;;;;;;;8.03;7.33;;;20.20;99.90;;;;;;6125194;23;20443;-68
2021/09/01 10:45:02;;;;;;;8.20;6.83;;;20.20;99.90;;;;;;6124641;23;20423;-68
2021/09/01 10:47:50;;;;;;;9.07;7.23;;;20.20;99.90;;;;;;6125206;23;20456;-67
2021/09/01 10:50:17;;;;;;;8.50;5.80;;;20.30;99.90;;;;;;6124634;23;20420;-68
2021/09/01 10:52:57;;;;;;;6.80;6.20;;;20.40;99.90;;;;;;6124833;23;20834;-69
2021/09/01 10:55:24;;;;;;;6.37;5.53;;;20.50;99.90;;;;;;6124647;23;20458;-69
2021/09/01 10:58:16;;;;;;;7.17;6.57;;;20.70;99.90;;;;;;6124917;23;20435;-70
2021/09/01 11:00:44;;;;;;;7.13;6.50;;;20.70;99.90;;;;;;6124488;23;20454;-69
2021/09/01 11:03:11;;;;;;;6.87;6.23;;;20.80;99.90;;;;;;6124211;23;20747;-69
2021/09/01 11:05:38;;;;;;;9.30;6.40;;;20.80;99.90;;;;;;6124443;23;20423;-69
2021/09/01 11:08:05;;;;;;;7.13;6.57;;;21.00;99.90;;;;;;6124575;23;20420;-70
2021/09/01 11:10:32;;;;;;;7.03;6.50;;;21.00;99.90;;;;;;6124818;23;20448;-69
2021/09/01 11:13:00;;;;;;;6.87;6.20;;;21.00;99.90;;;;;;6124113;23;20968;-69
2021/09/01 11:15:27;;;;;;;6.67;6.10;;;21.00;99.90;;;;;;6124462;23;20431;-69
2021/09/01 11:18:08;;;;;;;5.60;5.30;;;21.10;99.90;;;;;;6125933;23;20497;-68
2021/09/01 11:20:35;;;;;;;6.57;6.07;;;21.20;99.90;;;;;;6127316;23;20447;-68
2021/09/01 11:23:02;;;;;;;8.17;7.30;;;21.20;99.90;;;;;;6126554;23;20419;-69
2021/09/01 11:25:30;;;;;;;7.10;6.43;;;21.20;99.90;;;;;;6126755;23;20758;-68
2021/09/01 11:27:57;;;;;;;8.70;6.83;;;21.30;99.90;;;;;;6126640;23;20447;-68
2021/09/01 11:30:31;;;;;;;6.90;6.30;;;21.30;99.90;;;;;;6135389;23;20434;-67
2021/09/01 11:32:59;;;;;;;6.87;6.30;;;21.30;99.90;;;;;;6125649;23;20451;-67
2021/09/01 11:35:29;;;;;;;7.87;7.03;;;21.30;99.90;;;;;;6126683;23;20434;-67
2021/09/01 11:37:57;;;;;;;7.20;6.40;;;21.30;99.90;;;;;;6126603;23;20495;-68
2021/09/01 11:40:31;;;;;;;6.87;6.27;;;21.40;99.90;;;;;;6126322;23;20907;-68
2021/09/01 11:42:58;;;;;;;6.23;5.77;;;21.50;99.90;;;;;;6126405;23;20450;-67
2021/09/01 11:45:26;;;;;;;7.30;6.77;;;21.50;99.90;;;;;;6126144;23;20423;-67
2021/09/01 11:47:52;;;;;;;6.57;6.00;;;21.50;99.90;;;;;;6126147;23;20438;-67
2021/09/01 11:50:20;;;;;;;8.50;6.60;;;21.60;99.90;;;;;;6126479;23;20423;-67
2021/09/01 11:52:54;;;;;;;6.20;5.80;;;21.60;99.90;;;;;;6126251;23;20427;-67
2021/09/01 11:55:23;;;;;;;6.47;6.00;;;21.70;99.90;;;;;;6126569;23;20427;-68
2021/09/01 11:57:49;;;;;;;6.57;6.07;;;21.70;99.90;;;;;;6126114;23;20809;-67
2021/09/01 12:00:17;;;;;;;6.00;5.60;;;21.80;99.90;;;;;;6125467;23;20427;-67
2021/09/01 12:02:44;;;;;;;6.77;6.23;;;21.90;99.90;;;;;;6125326;23;20435;-67
2021/09/01 12:05:11;;;;;;;7.00;6.50;;;22.00;99.90;;;;;;6126503;23;20526;-67
2021/09/01 12:07:39;;;;;;;7.50;6.90;;;22.10;99.90;;;;;;6126321;23;20419;-68
2021/09/01 12:10:10;;;;;;;6.40;5.80;;;22.10;99.90;;;;;;6126442;23;20419;-67
2021/09/01 12:12:38;;;;;;;7.10;6.27;;;22.30;99.90;;;;;;6126395;23;20411;-67
2021/09/01 12:15:11;;;;;;;6.90;6.33;;;22.30;99.90;;;;;;6125228;23;20452;-67
2021/09/01 12:17:38;;;;;;;10.80;6.93;;;22.30;99.90;;;;;;6125797;23;20459;-68
2021/09/01 12:20:06;;;;;;;6.90;6.20;;;22.30;99.90;;;;;;6126090;23;20905;-67
2021/09/01 12:22:35;;;;;;;7.00;6.40;;;22.30;99.90;;;;;;6125943;23;20507;-67
2021/09/01 12:25:08;;;;;;;8.83;7.37;;;22.30;99.90;;;;;;6125846;23;20930;-67
2021/09/01 12:27:35;;;;;;;7.13;6.53;;;22.10;99.90;;;;;;6125368;23;20866;-67
2021/09/01 12:30:05;;;;;;;7.37;6.63;;;22.20;99.90;;;;;;6125342;23;20655;-67
2021/09/01 12:32:31;;;;;;;7.60;7.00;;;22.10;99.90;;;;;;6125966;23;20448;-68
2021/09/01 12:35:02;;;;;;;8.70;7.93;;;22.20;99.90;;;;;;6125751;23;20455;-67
2021/09/01 12:37:31;;;;;;;6.90;6.40;;;22.40;99.90;;;;;;6126169;23;20408;-67
2021/09/01 12:39:59;;;;;;;7.90;6.87;;;22.40;99.90;;;;;;6126211;23;20431;-67
2021/09/01 12:42:33;;;;;;;8.20;7.40;;;22.30;99.90;;;;;;6125878;23;20503;-67
2021/09/01 12:45:01;;;;;;;7.47;6.67;;;22.40;99.90;;;;;;6125047;23;20871;-67
2021/09/01 12:47:29;;;;;;;7.57;6.90;;;22.40;99.90;;;;;;6126181;23;20548;-67
2021/09/01 12:49:58;;;;;;;7.73;7.20;;;22.50;99.90;;;;;;6125129;23;20740;-67
2021/09/01 12:52:26;;;;;;;8.33;7.63;;;22.50;99.90;;;;;;6125768;23;20443;-67
2021/09/01 12:54:54;;;;;;;8.43;7.57;;;22.50;99.90;;;;;;6125712;23;20455;-67
2021/09/01 12:57:21;;;;;;;10.27;8.53;;;22.40;99.90;;;;;;6125711;23;20924;-67
2021/09/01 12:59:49;;;;;;;7.90;7.30;;;22.20;99.90;;;;;;6125410;23;20439;-70
2021/09/01 13:02:16;;;;;;;7.83;7.23;;;22.10;99.90;;;;;;6125412;23;20558;-67
2021/09/01 13:04:43;;;;;;;7.67;6.97;;;22.20;99.90;;;;;;6124977;23;20427;-68
2021/09/01 13:07:11;;;;;;;8.03;7.20;;;22.20;99.90;;;;;;6125889;23;20424;-67
2021/09/01 13:09:38;;;;;;;9.53;8.63;;;22.20;99.90;;;;;;6125257;23;20436;-67
2021/09/01 13:12:06;;;;;;;8.33;7.53;;;22.30;99.90;;;;;;6125092;23;20467;-67
2021/09/01 13:14:32;;;;;;;8.80;7.90;;;22.30;99.90;;;;;;6125567;23;20458;-67
2021/09/01 13:17:01;;;;;;;9.10;8.20;;;22.30;99.90;;;;;;6125289;23;20424;-67
2021/09/01 13:19:27;;;;;;;9.20;7.90;;;22.40;99.90;;;;;;6125268;23;20430;-66
2021/09/01 13:21:54;;;;;;;8.70;8.10;;;22.40;99.90;;;;;;6125276;23;20455;-66
2021/09/01 13:24:21;;;;;;;8.10;7.40;;;22.40;99.90;;;;;;6125060;23;20952;-66
2021/09/01 13:26:47;;;;;;;7.80;7.10;;;22.40;99.90;;;;;;6125147;23;20424;-66
2021/09/01 13:29:14;;;;;;;8.00;7.40;;;22.30;99.90;;;;;;6125149;23;20427;-66
2021/09/01 13:31:41;;;;;;;10.07;7.90;;;22.50;99.90;;;;;;6125080;23;20768;-66
2021/09/01 13:34:09;;;;;;;8.50;7.70;;;22.40;99.90;;;;;;6124601;23;20451;-66
2021/09/01 13:36:35;;;;;;;9.33;8.53;;;22.40;99.90;;;;;;6125601;23;20444;-66
2021/09/01 13:39:03;;;;;;;8.03;7.43;;;22.40;99.90;;;;;;6125267;23;20747;-66
2021/09/01 13:41:29;;;;;;;8.57;7.87;;;22.40;99.90;;;;;;6125080;23;21006;-67
2021/09/01 13:43:57;;;;;;;8.53;7.13;;;22.50;99.90;;;;;;6125198;23;20427;-66
2021/09/01 13:46:27;;;;;;;8.13;7.43;;;22.50;99.90;;;;;;6125181;23;20758;-66
2021/09/01 13:48:54;;;;;;;8.00;7.40;;;22.50;99.90;;;;;;6125033;23;20460;-66
2021/09/01 13:51:23;;;;;;;8.73;8.03;;;22.60;99.90;;;;;;6125181;23;20506;-66
2021/09/01 13:53:49;;;;;;;8.67;7.80;;;22.50;99.90;;;;;;6124677;23;20447;-66
2021/09/01 13:56:16;;;;;;;9.10;8.00;;;22.50;99.90;;;;;;6125104;23;20423;-67
2021/09/01 13:58:43;;;;;;;7.53;6.97;;;22.40;99.90;;;;;;6125229;23;20412;-67
2021/09/01 14:01:10;;;;;;;7.93;7.20;;;22.40;99.90;;;;;;6124805;23;20452;-66
2021/09/01 14:03:37;;;;;;;8.50;7.57;;;22.50;99.90;;;;;;6124495;23;20435;-66
2021/09/01 14:06:05;;;;;;;10.57;7.43;;;22.50;99.90;;;;;;6125448;23;20423;-66
2021/09/01 14:08:33;;;;;;;8.50;7.90;;;22.50;99.90;;;;;;6125217;23;20424;-67
2021/09/01 14:10:59;;;;;;;8.90;8.10;;;22.40;99.90;;;;;;6125469;23;20770;-67
2021/09/01 14:13:26;;;;;;;7.87;7.20;;;22.30;99.90;;;;;;6124972;23;20482;-66
2021/09/01 14:15:53;;;;;;;9.37;7.10;;;22.20;99.90;;;;;;6124645;23;20434;-67
2021/09/01 14:18:21;;;;;;;8.47;7.77;;;22.30;99.90;;;;;;6124115;23;20444;-67
2021/09/01 14:20:48;;;;;;;7.03;6.53;;;22.40;99.90;;;;;;6124817;23;20448;-67
2021/09/01 14:23:15;;;;;;;8.30;7.60;;;22.50;99.90;;;;;;6124773;23;20432;-67
2021/09/01 14:25:43;;;;;;;8.83;8.03;;;22.80;99.90;;;;;;6125147;23;20423;-67
2021/09/01 14:28:10;;;;;;;7.60;6.80;;;22.80;99.90;;;;;;6124600;23;20424;-67
2021/09/01 14:30:37;;;;;;;7.90;7.13;;;22.80;99.90;;;;;;6124668;23;20546;-68
2021/09/01 14:33:05;;;;;;;6.90;6.40;;;22.80;99.90;;;;;;6124300;23;20546;-68
2021/09/01 14:35:32;;;;;;;7.23;6.73;;;22.70;99.90;;;;;;6125107;23;20539;-68
2021/09/01 14:37:58;;;;;;;7.73;7.13;;;22.70;99.90;;;;;;6124645;23;20502;-68
2021/09/01 14:40:25;;;;;;;7.27;6.70;;;22.70;99.90;;;;;;6125049;23;20501;-68
2021/09/01 14:42:53;;;;;;;7.70;6.77;;;22.70;99.90;;;;;;6124849;23;20470;-68
2021/09/01 14:45:20;;;;;;;7.90;7.00;;;22.80;99.90;;;;;;6124713;23;20735;-68
2021/09/01 14:47:47;;;;;;;7.53;7.03;;;22.80;99.90;;;;;;6124516;23;20777;-68
2021/09/01 14:50:13;;;;;;;6.30;5.70;;;22.70;99.90;;;;;;6124834;23;20700;-67
2021/09/01 14:52:41;;;;;;;7.40;6.90;;;22.70;99.90;;;;;;6126768;23;20506;-68
2021/09/01 14:55:08;;;;;;;7.63;6.73;;;22.80;99.90;;;;;;6127077;23;20762;-68
2021/09/01 14:57:35;;;;;;;8.77;6.80;;;22.80;99.90;;;;;;6126929;23;20424;-68
2021/09/01 15:00:04;;;;;;;7.00;6.37;;;22.80;99.90;;;;;;6126167;23;20918;-68
2021/09/01 15:02:31;;;;;;;7.73;7.07;;;22.70;99.90;;;;;;6126323;23;20451;-68
2021/09/01 15:04:57;;;;;;;6.37;5.87;;;22.70;99.90;;;;;;6126128;23;20423;-68
2021/09/01 15:07:24;;;;;;;7.53;6.73;;;22.70;99.90;;;;;;6126847;23;20423;-68
2021/09/01 15:09:51;;;;;;;6.60;6.00;;;22.70;99.90;;;;;;6126873;23;20436;-68
2021/09/01 15:12:17;;;;;;;7.00;6.60;;;22.80;99.90;;;;;;6126695;23;20449;-68
2021/09/01 15:14:44;;;;;;;6.77;6.17;;;22.80;99.90;;;;;;6126354;23;20809;-68
2021/09/01 15:17:12;;;;;;;6.50;5.97;;;22.80;99.90;;;;;;6126519;23;20427;-68
2021/09/01 15:19:39;;;;;;;6.90;6.47;;;22.90;99.90;;;;;;6126213;23;20479;-68
2021/09/01 15:22:05;;;;;;;7.00;5.60;;;23.00;99.90;;;;;;6126253;23;20464;-68
2021/09/01 15:24:34;;;;;;;6.53;5.93;;;23.10;99.90;;;;;;6126645;23;20446;-68
2021/09/01 15:27:01;;;;;;;6.57;6.07;;;23.10;99.90;;;;;;6127215;23;20423;-68
2021/09/01 15:29:29;;;;;;;8.57;6.77;;;23.00;99.90;;;;;;6126847;23;20423;-68
2021/09/01 15:31:56;;;;;;;7.30;6.70;;;22.90;99.90;;;;;;6126266;23;20719;-68
2021/09/01 15:34:24;;;;;;;6.27;5.87;;;22.90;99.90;;;;;;6126002;23;20454;-68
2021/09/01 15:36:51;;;;;;;6.57;6.07;;;22.90;99.90;;;;;;6126619;23;20424;-68
2021/09/01 15:39:17;;;;;;;7.90;7.20;;;22.80;99.90;;;;;;6126254;23;20877;-67
2021/09/01 15:41:45;;;;;;;8.43;6.77;;;22.70;99.90;;;;;;6135946;23;20440;-67
2021/09/01 15:44:14;;;;;;;8.03;7.33;;;22.60;99.90;;;;;;6126313;23;20430;-67
2021/09/01 15:46:45;;;;;;;6.80;6.30;;;22.60;99.90;;;;;;6125550;23;20423;-68
2021/09/01 15:49:13;;;;;;;7.10;6.57;;;22.50;99.90;;;;;;6126162;23;20842;-67
2021/09/01 15:51:42;;;;;;;7.57;6.83;;;22.50;99.90;;;;;;6126086;23;20459;-67
2021/09/01 15:54:10;;;;;;;7.20;6.57;;;22.50;99.90;;;;;;6126514;23;20753;-68
2021/09/01 15:56:39;;;;;;;7.77;7.17;;;22.50;99.90;;;;;;6126571;23;20839;-68
2021/09/01 15:59:06;;;;;;;7.07;6.37;;;22.40;99.90;;;;;;6126297;23;20431;-68
2021/09/01 16:01:37;;;;;;;7.57;6.80;;;22.40;99.90;;;;;;6125987;23;20455;-68
2021/09/01 16:04:05;;;;;;;6.73;6.30;;;22.40;99.90;;;;;;6125962;23;20435;-67
2021/09/01 16:06:34;;;;;;;8.17;7.57;;;22.40;99.90;;;;;;6126548;23;20427;-67
2021/09/01 16:09:02;;;;;;;7.20;6.60;;;22.30;99.90;;;;;;6126611;23;20427;-67
2021/09/01 16:11:31;;;;;;;7.70;7.00;;;22.30;99.90;;;;;;6126201;23;20443;-68
2021/09/01 16:14:06;;;;;;;7.90;7.20;;;22.30;99.90;;;;;;6126436;23;20493;-68
2021/09/01 16:16:36;;;;;;;9.47;7.90;;;22.30;99.90;;;;;;6126002;23;20399;-69
2021/09/01 16:19:13;;;;;;;8.17;7.47;;;22.20;99.90;;;;;;6127712;23;20411;-68
2021/09/01 16:21:48;;;;;;;7.43;6.93;;;22.10;99.90;;;;;;6126707;23;20451;-67
2021/09/01 16:24:17;;;;;;;7.50;6.93;;;22.00;99.90;;;;;;6126046;23;20471;-67
2021/09/01 16:26:45;;;;;;;9.10;8.33;;;22.00;99.90;;;;;;6135826;23;20451;-67
2021/09/01 16:29:16;;;;;;;9.47;8.60;;;22.00;99.90;;;;;;6126481;23;20462;-67
2021/09/01 16:31:43;;;;;;;8.07;7.47;;;21.90;99.90;;;;;;6125639;23;20463;-67
2021/09/01 16:34:10;;;;;;;7.40;6.80;;;21.80;99.90;;;;;;6125114;23;20423;-67
2021/09/01 16:36:38;;;;;;;8.17;7.47;;;21.80;99.90;;;;;;6126134;23;20430;-68
2021/09/01 16:39:10;;;;;;;9.30;7.60;;;21.70;99.90;;;;;;6125741;23;20471;-69
2021/09/01 16:41:46;;;;;;;8.67;8.07;;;21.70;99.90;;;;;;6136157;23;20530;-70
2021/09/01 16:44:13;;;;;;;7.60;6.90;;;21.60;99.90;;;;;;6125746;23;20490;-70
2021/09/01 16:46:41;;;;;;;8.63;8.03;;;21.60;99.90;;;;;;6125736;23;20423;-72